createdAt,value
2019-05-12T00:00:21.026Z,1.10
2019-05-12T00:02:49.640Z,1.12
2019-05-12T00:05:18.725Z,1.00
2019-05-12T00:07:49.008Z,0.95
2019-05-12T00:10:18.044Z,1.07
2019-05-12T00:12:48.351Z,0.90
2019-05-12T00:15:19.144Z,1.02
2019-05-12T00:17:48.343Z,1.00
2019-05-12T00:20:18.232Z,1.02
2019-05-12T00:22:50.230Z,1.00
2019-05-12T00:25:18.892Z,1.17
2019-05-12T00:27:48.565Z,0.90
2019-05-12T00:30:38.918Z,1.15
2019-05-12T00:33:09.210Z,1.45
2019-05-12T00:35:38.075Z,1.00
2019-05-12T00:38:09.145Z,1.00
2019-05-12T00:40:39.179Z,1.07
2019-05-12T00:43:08.814Z,1.00
2019-05-12T00:45:38.491Z,1.20
2019-05-12T00:48:09.180Z,1.10
2019-05-12T00:50:38.296Z,1.12
2019-05-12T00:53:09.013Z,0.85
2019-05-12T00:55:38.013Z,1.00
2019-05-12T00:58:08.221Z,0.70
2019-05-12T01:00:40.537Z,1.00
2019-05-12T01:03:08.645Z,0.90
2019-05-12T01:05:38.270Z,1.02
2019-05-12T01:08:09.180Z,1.10
2019-05-12T01:10:38.995Z,0.85
2019-05-12T01:13:08.623Z,0.90
2019-05-12T01:15:37.950Z,1.00
2019-05-12T01:18:08.925Z,1.00
2019-05-12T01:20:38.842Z,0.80
2019-05-12T01:23:08.504Z,1.20
2019-05-12T01:25:39.465Z,0.80
2019-05-12T01:28:08.245Z,1.10
2019-05-12T01:30:39.001Z,1.25
2019-05-12T01:33:11.132Z,0.80
2019-05-12T01:35:39.683Z,1.00
2019-05-12T01:38:08.497Z,1.07
2019-05-12T01:40:39.325Z,1.02
2019-05-12T01:43:09.158Z,0.90
2019-05-12T01:45:38.924Z,1.00
2019-05-12T01:48:08.683Z,1.00
2019-05-12T01:50:38.706Z,1.10
2019-05-12T01:53:08.301Z,1.02
2019-05-12T01:55:38.609Z,0.93
2019-05-12T01:58:08.295Z,1.20
2019-05-12T02:00:38.673Z,1.35
2019-05-12T02:03:09.128Z,1.20
2019-05-12T02:05:39.561Z,1.20
2019-05-12T02:08:11.780Z,1.00
2019-05-12T02:10:41.364Z,1.07
2019-05-12T02:13:09.957Z,1.10
2019-05-12T02:15:38.603Z,1.00
2019-05-12T02:18:09.339Z,1.00
2019-05-12T02:20:38.387Z,1.12
2019-05-12T02:23:08.887Z,0.98
2019-05-12T02:25:38.065Z,1.00
2019-05-12T02:28:09.273Z,1.10
2019-05-12T02:30:40.754Z,1.27
2019-05-12T02:33:07.627Z,0.95
2019-05-12T02:35:36.301Z,0.90
2019-05-12T02:38:05.373Z,1.20
2019-05-12T02:40:35.004Z,0.93
2019-05-12T02:43:05.281Z,1.32
2019-05-12T02:45:35.564Z,0.93
2019-05-12T02:48:05.241Z,0.93
2019-05-12T02:50:36.471Z,1.10
2019-05-12T02:53:05.914Z,1.10
2019-05-12T02:55:35.588Z,0.95
2019-05-12T02:58:05.453Z,1.00
2019-05-12T03:00:35.458Z,1.40
2019-05-12T03:03:05.705Z,1.10
2019-05-12T03:05:35.184Z,1.22
2019-05-12T03:08:04.857Z,1.20
2019-05-12T03:10:36.340Z,1.30
2019-05-12T03:13:05.058Z,1.17
2019-05-12T03:15:36.376Z,1.32
2019-05-12T03:18:06.093Z,1.27
2019-05-12T03:20:35.442Z,1.20
2019-05-12T03:23:05.927Z,1.20
2019-05-12T03:25:35.726Z,0.90
2019-05-12T03:28:08.302Z,1.22
2019-05-12T03:30:38.082Z,0.88
2019-05-12T03:33:09.306Z,1.15
2019-05-12T03:35:43.092Z,1.10
2019-05-12T03:38:06.066Z,0.98
2019-05-12T03:40:38.088Z,1.02
2019-05-12T03:43:05.716Z,1.10
2019-05-12T03:45:35.954Z,0.88
2019-05-12T03:48:05.182Z,1.35
2019-05-12T03:50:35.454Z,1.02
2019-05-12T03:53:08.963Z,0.98
2019-05-12T03:55:40.260Z,1.07
2019-05-12T03:58:04.817Z,1.22
2019-05-12T04:00:35.915Z,0.80
2019-05-12T04:03:04.768Z,1.20
2019-05-12T04:05:34.991Z,1.00
2019-05-12T04:08:05.434Z,1.02
2019-05-12T04:10:35.444Z,1.02
2019-05-12T04:13:04.900Z,1.15
2019-05-12T04:15:34.643Z,1.30
2019-05-12T04:18:05.501Z,1.27
2019-05-12T04:20:36.572Z,1.07
2019-05-12T04:23:06.418Z,0.90
2019-05-12T04:25:51.756Z,1.10
2019-05-12T04:28:05.905Z,1.20
2019-05-12T04:30:35.422Z,1.40
2019-05-12T04:33:05.178Z,1.25
2019-05-12T04:35:35.131Z,0.82
2019-05-12T04:38:04.480Z,1.27
2019-05-12T04:40:35.913Z,1.17
2019-05-12T04:43:06.260Z,1.20
2019-05-12T04:45:36.299Z,1.25
2019-05-12T04:48:05.925Z,1.10
2019-05-12T04:50:36.206Z,1.10
2019-05-12T04:53:06.395Z,0.90
2019-05-12T04:55:35.955Z,1.05
2019-05-12T04:58:06.227Z,1.20
2019-05-12T05:00:38.276Z,1.12
2019-05-12T05:03:06.843Z,1.00
2019-05-12T05:05:36.236Z,1.00
2019-05-12T05:08:05.455Z,0.95
2019-05-12T05:10:34.692Z,1.05
2019-05-12T05:13:05.275Z,1.10
2019-05-12T05:15:35.181Z,0.93
2019-05-12T05:18:06.703Z,1.05
2019-05-12T05:20:35.671Z,0.80
2019-05-12T05:23:04.323Z,1.10
2019-05-12T05:25:34.178Z,1.00
2019-05-12T05:28:03.950Z,1.00
2019-05-12T05:30:33.938Z,0.90
2019-05-12T05:33:04.628Z,1.10
2019-05-12T05:35:39.004Z,1.07
2019-05-12T05:38:06.032Z,1.00
2019-05-12T05:40:35.697Z,0.80
2019-05-12T05:43:12.756Z,0.82
2019-05-12T05:45:38.102Z,0.90
2019-05-12T05:48:10.058Z,0.90
2019-05-12T05:50:37.112Z,1.32
2019-05-12T05:53:09.280Z,0.85
2019-05-12T05:55:36.162Z,0.80
2019-05-12T05:58:08.766Z,1.17
2019-05-12T06:00:39.105Z,1.00
2019-05-12T06:03:06.136Z,0.93
2019-05-12T06:05:38.436Z,0.90
2019-05-12T06:08:09.493Z,0.90
2019-05-12T06:10:40.139Z,1.02
2019-05-12T06:13:05.716Z,0.88
2019-05-12T06:15:38.806Z,1.17
2019-05-12T06:18:04.663Z,1.15
2019-05-12T06:20:37.641Z,1.10
2019-05-12T06:23:05.785Z,1.32
2019-05-12T06:25:46.186Z,0.90
2019-05-12T06:28:08.407Z,1.12
2019-05-12T06:30:43.769Z,1.20
2019-05-12T06:33:07.826Z,1.05
2019-05-12T06:35:42.110Z,1.10
2019-05-12T06:38:06.780Z,1.10
2019-05-12T06:40:40.780Z,1.25
2019-05-12T06:43:05.624Z,1.22
2019-05-12T06:45:41.923Z,1.17
2019-05-12T06:48:06.676Z,0.80
2019-05-12T06:50:39.217Z,0.90
2019-05-12T06:53:05.607Z,0.88
2019-05-12T06:55:38.839Z,1.05
2019-05-12T06:58:04.957Z,1.00
2019-05-12T07:00:34.991Z,0.85
2019-05-12T07:03:05.185Z,1.10
2019-05-12T07:05:38.238Z,1.12
2019-05-12T07:08:04.470Z,0.93
2019-05-12T07:10:41.629Z,0.90
2019-05-12T07:13:05.519Z,0.80
2019-05-12T07:15:37.200Z,0.88
2019-05-12T07:18:07.734Z,1.00
2019-05-12T07:20:38.947Z,1.25
2019-05-12T07:23:06.576Z,1.07
2019-05-12T07:25:36.746Z,0.70
2019-05-12T07:28:07.826Z,0.80
2019-05-12T07:30:35.837Z,1.05
2019-05-12T07:33:05.050Z,1.00
2019-05-12T07:35:34.447Z,0.90
2019-05-12T07:38:04.651Z,0.98
2019-05-12T07:40:36.713Z,1.17
2019-05-12T07:43:04.169Z,0.80
2019-05-12T07:45:34.052Z,0.90
2019-05-12T07:48:05.639Z,1.00
2019-05-12T07:50:34.591Z,0.98
2019-05-12T07:53:04.286Z,1.00
2019-05-12T07:55:34.188Z,0.88
2019-05-12T07:58:10.209Z,1.00
2019-05-12T08:00:34.034Z,1.37
2019-05-12T08:03:16.005Z,1.30
2019-05-12T08:05:34.507Z,0.80
2019-05-12T08:08:09.074Z,0.93
2019-05-12T08:10:34.273Z,0.88
2019-05-12T08:13:04.831Z,1.00
2019-05-12T08:15:34.157Z,1.30
2019-05-12T08:18:07.213Z,0.78
2019-05-12T08:20:34.635Z,0.78
2019-05-12T08:23:05.895Z,0.53
2019-05-12T08:25:34.380Z,0.75
2019-05-12T08:28:12.432Z,0.98
2019-05-12T08:30:34.110Z,0.90
2019-05-12T08:33:09.194Z,0.72
2019-05-12T08:35:37.499Z,0.80
2019-05-12T08:38:03.985Z,0.60
2019-05-12T08:40:34.124Z,0.70
2019-05-12T08:43:08.129Z,0.90
2019-05-12T08:45:37.354Z,0.78
2019-05-12T08:48:10.421Z,0.90
2019-05-12T08:50:36.140Z,0.75
2019-05-12T08:53:05.231Z,1.00
2019-05-12T08:55:35.740Z,0.90
2019-05-12T08:58:04.927Z,0.70
2019-05-12T09:00:39.774Z,1.05
2019-05-12T09:03:05.109Z,0.70
2019-05-12T09:05:38.040Z,0.90
2019-05-12T09:08:04.412Z,0.85
2019-05-12T09:10:34.374Z,0.80
2019-05-12T09:13:04.009Z,0.70
2019-05-12T09:15:34.677Z,0.60
2019-05-12T09:18:04.796Z,1.07
2019-05-12T09:20:39.967Z,0.60
2019-05-12T09:23:06.451Z,0.65
2019-05-12T09:25:39.376Z,0.55
2019-05-12T09:28:05.395Z,0.85
2019-05-12T09:30:33.988Z,0.98
2019-05-12T09:33:04.136Z,0.70
2019-05-12T09:35:34.884Z,0.70
2019-05-12T09:38:05.957Z,0.80
2019-05-12T09:40:35.661Z,0.68
2019-05-12T09:43:06.307Z,0.78
2019-05-12T09:45:34.208Z,0.80
2019-05-12T09:48:04.768Z,0.70
2019-05-12T09:50:34.099Z,0.60
2019-05-12T09:53:09.266Z,0.70
2019-05-12T09:55:34.256Z,0.70
2019-05-12T09:58:03.972Z,0.80
2019-05-12T10:00:35.915Z,0.60
2019-05-12T10:03:04.771Z,0.68
2019-05-12T10:05:39.253Z,0.62
2019-05-12T10:08:04.762Z,0.60
2019-05-12T10:10:38.072Z,0.57
2019-05-12T10:13:04.641Z,0.57
2019-05-12T10:15:33.716Z,0.70
2019-05-12T10:18:08.919Z,0.65
2019-05-12T10:20:35.221Z,0.60
2019-05-12T10:23:04.305Z,0.90
2019-05-12T10:25:33.878Z,0.70
2019-05-12T10:28:11.202Z,0.80
2019-05-12T10:30:34.205Z,1.00
2019-05-12T10:33:03.691Z,0.80
2019-05-12T10:35:35.193Z,0.90
2019-05-12T10:38:06.205Z,0.60
2019-05-12T10:40:33.914Z,0.70
2019-05-12T10:43:04.479Z,0.75
2019-05-12T10:45:33.732Z,0.90
2019-05-12T10:48:03.592Z,0.68
2019-05-12T10:50:34.034Z,0.70
2019-05-12T10:53:04.516Z,1.00
2019-05-12T10:55:34.293Z,0.93
2019-05-12T10:58:09.324Z,0.75
2019-05-12T11:00:37.966Z,0.70
2019-05-12T11:03:10.555Z,0.80
2019-05-12T11:05:36.928Z,0.90
2019-05-12T11:08:09.437Z,0.60
2019-05-12T11:10:35.950Z,0.70
2019-05-12T11:13:08.169Z,0.80
2019-05-12T11:15:39.557Z,0.88
2019-05-12T11:18:20.517Z,0.60
2019-05-12T11:20:46.473Z,0.70
2019-05-12T11:23:15.096Z,0.68
2019-05-12T11:25:44.049Z,0.65
2019-05-12T11:28:14.015Z,0.60
2019-05-12T11:30:43.645Z,0.65
2019-05-12T11:33:12.518Z,0.82
2019-05-12T11:35:43.363Z,0.90
2019-05-12T11:38:13.454Z,0.65
2019-05-12T11:40:43.658Z,0.50
2019-05-12T11:43:14.276Z,0.60
2019-05-12T11:45:44.198Z,0.68
2019-05-12T11:48:14.393Z,0.60
2019-05-12T11:50:49.504Z,0.60
2019-05-12T11:53:13.852Z,0.80
2019-05-12T11:55:43.956Z,0.90
2019-05-12T11:58:13.858Z,0.70
2019-05-12T12:00:45.307Z,0.55
2019-05-12T12:03:17.934Z,0.50
2019-05-12T12:05:44.399Z,0.62
2019-05-12T12:08:14.594Z,0.78
2019-05-12T12:10:43.586Z,0.72
2019-05-12T12:13:14.106Z,0.70
2019-05-12T12:15:42.615Z,0.60
2019-05-12T12:18:13.459Z,0.70
2019-05-12T12:20:44.152Z,0.85
2019-05-12T12:23:14.085Z,0.60
2019-05-12T12:25:42.962Z,0.68
2019-05-12T12:28:13.617Z,0.75
2019-05-12T12:30:47.252Z,0.70
2019-05-12T12:33:14.332Z,0.55
2019-05-12T12:35:44.508Z,0.68
2019-05-12T12:38:14.096Z,0.50
2019-05-12T12:40:44.141Z,0.57
2019-05-12T12:43:13.762Z,0.70
2019-05-12T12:46:02.516Z,0.70
2019-05-12T12:48:33.185Z,0.75
2019-05-12T12:51:03.991Z,0.55
2019-05-12T12:53:34.381Z,0.68
2019-05-12T12:56:04.325Z,0.60
2019-05-12T12:58:34.547Z,0.75
2019-05-12T13:01:04.117Z,0.72
2019-05-12T13:03:35.517Z,0.65
2019-05-12T13:06:04.679Z,0.70
2019-05-12T13:08:34.284Z,0.70
2019-05-12T13:11:04.309Z,0.50
2019-05-12T13:13:33.211Z,0.78
2019-05-12T13:16:03.920Z,0.55
2019-05-12T13:18:35.665Z,0.40
2019-05-12T13:21:04.645Z,0.35
2019-05-12T13:23:40.082Z,0.40
2019-05-12T13:26:04.911Z,0.60
2019-05-12T13:28:34.284Z,0.50
2019-05-12T13:31:11.022Z,0.60
2019-05-12T13:33:33.827Z,0.65
2019-05-12T13:36:04.379Z,0.62
2019-05-12T13:38:36.396Z,0.47
2019-05-12T13:41:04.531Z,0.78
2019-05-12T13:43:34.176Z,0.50
2019-05-12T13:46:02.804Z,0.78
2019-05-12T13:48:31.502Z,0.70
2019-05-12T13:51:10.311Z,0.60
2019-05-12T13:53:30.472Z,0.50
2019-05-12T13:55:59.178Z,0.68
2019-05-12T13:58:32.984Z,0.60
2019-05-12T14:01:13.249Z,0.60
2019-05-12T14:03:28.778Z,0.50
2019-05-12T14:05:57.423Z,0.70
2019-05-12T14:08:27.648Z,0.57
2019-05-12T14:10:59.391Z,0.47
2019-05-12T14:13:26.621Z,0.40
2019-05-12T14:15:55.316Z,0.55
2019-05-12T14:18:24.051Z,0.50
2019-05-12T14:20:58.842Z,0.70
2019-05-12T14:23:23.964Z,0.70
2019-05-12T14:25:54.281Z,0.95
2019-05-12T14:28:23.491Z,0.72
2019-05-12T14:30:54.358Z,0.68
2019-05-12T14:33:24.511Z,0.75
2019-05-12T14:35:53.729Z,0.50
2019-05-12T14:38:25.428Z,0.60
2019-05-12T14:40:53.679Z,0.60
2019-05-12T14:43:24.030Z,0.50
2019-05-12T14:45:54.195Z,0.50
2019-05-12T14:48:22.989Z,0.80
2019-05-12T14:50:53.530Z,0.93
2019-05-12T14:53:23.700Z,0.75
2019-05-12T14:55:53.524Z,1.00
2019-05-12T14:58:23.724Z,0.68
2019-05-12T15:00:56.445Z,0.50
2019-05-12T15:03:24.213Z,0.75
2019-05-12T15:05:54.605Z,0.80
2019-05-12T15:08:35.663Z,0.80
2019-05-12T15:10:54.953Z,0.70
2019-05-12T15:13:23.958Z,0.82
2019-05-12T15:15:57.975Z,0.50
2019-05-12T15:18:23.249Z,0.90
2019-05-12T15:20:52.411Z,0.80
2019-05-12T15:23:23.889Z,0.70
2019-05-12T15:25:54.146Z,0.70
2019-05-12T15:28:23.592Z,0.90
2019-05-12T15:30:54.220Z,0.75
2019-05-12T15:33:24.345Z,0.90
2019-05-12T15:35:54.728Z,0.80
2019-05-12T15:38:24.567Z,0.70
2019-05-12T15:40:53.797Z,0.78
2019-05-12T15:43:24.439Z,0.78
2019-05-12T15:45:59.481Z,0.50
2019-05-12T15:48:26.318Z,0.80
2019-05-12T15:50:59.315Z,0.70
2019-05-12T15:53:27.748Z,0.80
2019-05-12T15:55:56.380Z,0.90
2019-05-12T15:58:25.011Z,0.62
2019-05-12T16:00:57.671Z,0.72
2019-05-12T16:03:26.422Z,0.90
2019-05-12T16:05:55.000Z,0.93
2019-05-12T16:08:24.469Z,0.82
2019-05-12T16:10:53.638Z,0.50
2019-05-12T16:13:24.318Z,0.98
2019-05-12T16:15:57.611Z,0.62
2019-05-12T16:18:26.367Z,0.60
2019-05-12T16:20:58.551Z,0.82
2019-05-12T16:23:29.836Z,0.70
2019-05-12T16:25:54.354Z,0.62
2019-05-12T16:28:26.365Z,1.00
2019-05-12T16:30:53.667Z,0.80
2019-05-12T16:33:22.355Z,0.90
2019-05-12T16:35:50.975Z,0.80
2019-05-12T16:38:20.125Z,0.90
2019-05-12T16:40:49.943Z,0.95
2019-05-12T16:43:18.703Z,0.90
2019-05-12T16:45:47.356Z,0.80
2019-05-12T16:48:29.442Z,0.75
2019-05-12T16:50:46.255Z,0.85
2019-05-12T16:53:21.654Z,0.62
2019-05-12T16:55:49.622Z,0.82
2019-05-12T16:58:15.407Z,0.85
2019-05-12T17:00:45.284Z,0.80
2019-05-12T17:03:18.177Z,0.90
2019-05-12T17:05:49.947Z,0.60
2019-05-12T17:08:16.136Z,0.62
2019-05-12T17:10:49.608Z,0.62
2019-05-12T17:13:16.073Z,0.50
2019-05-12T17:15:48.654Z,0.50
2019-05-12T17:18:16.144Z,0.90
2019-05-12T17:20:49.265Z,0.62
2019-05-12T17:23:15.110Z,0.80
2019-05-12T17:25:47.313Z,0.68
2019-05-12T17:28:17.649Z,0.57
2019-05-12T17:30:46.476Z,0.57
2019-05-12T17:33:22.401Z,0.40
2019-05-12T17:35:45.641Z,0.70
2019-05-12T17:38:20.003Z,0.72
2019-05-12T17:40:45.059Z,0.70
2019-05-12T17:43:13.770Z,0.70
2019-05-12T17:45:44.334Z,0.80
2019-05-12T17:48:14.308Z,0.80
2019-05-12T17:50:46.658Z,0.50
2019-05-12T17:53:14.837Z,0.88
2019-05-12T17:55:50.847Z,0.65
2019-05-12T17:58:15.427Z,0.62
2019-05-12T18:00:47.692Z,0.57
2019-05-12T18:03:21.808Z,0.88
2019-05-12T18:05:47.920Z,0.93
2019-05-12T18:08:17.802Z,0.82
2019-05-12T18:10:48.091Z,0.90
2019-05-12T18:13:23.213Z,0.85
2019-05-12T18:15:47.219Z,0.62
2019-05-12T18:18:17.526Z,0.98
2019-05-12T18:20:47.244Z,1.40
2019-05-12T18:23:19.723Z,0.70
2019-05-12T18:25:46.873Z,0.88
2019-05-12T18:28:21.510Z,0.98
2019-05-12T18:30:45.921Z,0.50
2019-05-12T18:33:28.430Z,0.90
2019-05-12T18:35:44.879Z,0.60
2019-05-12T18:38:21.550Z,0.90
2019-05-12T18:40:43.759Z,0.88
2019-05-12T18:43:14.149Z,0.70
2019-05-12T18:45:48.635Z,1.00
2019-05-12T18:48:17.848Z,0.75
2019-05-12T18:50:44.767Z,0.93
2019-05-12T18:53:14.826Z,0.60
2019-05-12T18:55:44.295Z,0.65
2019-05-12T18:58:14.807Z,0.70
2019-05-12T19:00:43.675Z,0.72
2019-05-12T19:03:14.031Z,1.00
2019-05-12T19:05:43.724Z,1.00
2019-05-12T19:08:14.084Z,0.88
2019-05-12T19:10:44.444Z,0.98
2019-05-12T19:13:12.963Z,1.42
2019-05-12T19:15:43.930Z,0.93
2019-05-12T19:18:15.588Z,1.00
2019-05-12T19:20:43.337Z,0.78
2019-05-12T19:23:13.980Z,0.93
2019-05-12T19:25:43.913Z,0.95
2019-05-12T19:28:13.531Z,0.95
2019-05-12T19:30:43.726Z,0.80
2019-05-12T19:33:13.595Z,0.90
2019-05-12T19:35:42.388Z,0.80
2019-05-12T19:38:15.171Z,1.05
2019-05-12T19:40:49.379Z,0.90
2019-05-12T19:43:13.972Z,0.72
2019-05-12T19:45:43.516Z,0.70
2019-05-12T19:48:23.909Z,0.90
2019-05-12T19:50:44.381Z,1.00
2019-05-12T19:53:13.390Z,0.70
2019-05-12T19:55:44.340Z,1.15
2019-05-12T19:58:15.017Z,0.80
2019-05-12T20:00:44.198Z,0.90
2019-05-12T20:03:14.021Z,0.75
2019-05-12T20:05:43.475Z,1.12
2019-05-12T20:08:13.580Z,0.98
2019-05-12T20:10:44.659Z,0.85
2019-05-12T20:13:13.630Z,0.90
2019-05-12T20:15:43.683Z,0.88
2019-05-12T20:18:14.739Z,0.98
2019-05-12T20:20:44.727Z,1.07
2019-05-12T20:23:14.119Z,1.10
2019-05-12T20:25:45.812Z,1.10
2019-05-12T20:28:14.807Z,0.98
2019-05-12T20:30:44.009Z,1.10
2019-05-12T20:33:13.823Z,1.00
2019-05-12T20:35:45.176Z,1.37
2019-05-12T20:38:14.798Z,1.10
2019-05-12T20:40:43.395Z,1.00
2019-05-12T20:43:14.625Z,1.40
2019-05-12T20:45:42.447Z,1.10
2019-05-12T20:48:14.289Z,1.37
2019-05-12T20:50:43.542Z,1.00
2019-05-12T20:53:14.283Z,1.32
2019-05-12T20:55:44.313Z,0.82
2019-05-12T20:58:13.652Z,1.02
2019-05-12T21:00:45.415Z,1.10
2019-05-12T21:03:13.803Z,1.10
2019-05-12T21:05:42.641Z,1.00
2019-05-12T21:08:15.358Z,1.10
2019-05-12T21:10:43.898Z,1.05
2019-05-12T21:13:14.696Z,1.37
2019-05-12T21:15:45.534Z,0.90
2019-05-12T21:18:14.735Z,1.10
2019-05-12T21:20:46.482Z,1.40
2019-05-12T21:23:13.655Z,1.30
2019-05-12T21:25:43.953Z,1.30
2019-05-12T21:28:14.813Z,0.95
2019-05-12T21:30:48.014Z,1.15
2019-05-12T21:33:14.675Z,1.37
2019-05-12T21:35:46.021Z,1.07
2019-05-12T21:38:19.001Z,1.10
2019-05-12T21:40:44.245Z,1.22
2019-05-12T21:43:13.538Z,1.20
2019-05-12T21:45:42.297Z,1.22
2019-05-12T21:48:15.242Z,1.02
2019-05-12T21:50:41.112Z,0.90
2019-05-12T21:53:10.428Z,0.90
2019-05-12T21:55:39.886Z,0.90
2019-05-12T21:58:12.151Z,1.20
2019-05-12T22:00:44.683Z,1.35
2019-05-12T22:03:15.485Z,1.35
2019-05-12T22:05:51.432Z,1.30
2019-05-12T22:08:20.673Z,1.37
2019-05-12T22:10:45.044Z,1.07
2019-05-12T22:13:17.545Z,1.52
2019-05-12T22:15:43.990Z,1.30
2019-05-12T22:18:12.541Z,1.00
2019-05-12T22:20:41.154Z,1.02
2019-05-12T22:23:14.338Z,1.10
2019-05-12T22:25:40.539Z,1.27
2019-05-12T22:28:10.361Z,1.10
2019-05-12T22:30:39.305Z,0.93
2019-05-12T22:33:10.692Z,1.20
2019-05-12T22:35:38.170Z,1.10
2019-05-12T22:38:15.269Z,1.25
2019-05-12T22:40:37.095Z,1.10
2019-05-12T22:43:07.146Z,1.40
2019-05-12T22:45:44.194Z,1.17
2019-05-12T22:48:06.148Z,1.05
2019-05-12T22:50:35.352Z,1.25
2019-05-12T22:53:04.650Z,1.17
2019-05-12T22:55:36.056Z,1.02
2019-05-12T22:58:04.706Z,0.90
2019-05-12T23:00:34.250Z,1.00
2019-05-12T23:03:09.285Z,1.17
2019-05-12T23:05:33.428Z,1.07
2019-05-12T23:08:06.159Z,1.05
2019-05-12T23:10:32.400Z,1.30
2019-05-12T23:13:02.056Z,1.05
2019-05-12T23:15:33.410Z,1.27
2019-05-12T23:18:04.053Z,1.30
2019-05-12T23:20:33.355Z,1.05
2019-05-12T23:23:03.899Z,0.90
2019-05-12T23:25:33.587Z,1.00
2019-05-12T23:28:08.534Z,0.90
2019-05-12T23:30:32.850Z,1.20
2019-05-12T23:33:03.559Z,1.10
2019-05-12T23:35:37.231Z,0.93
2019-05-12T23:38:04.204Z,1.00
2019-05-12T23:40:34.282Z,1.30
2019-05-12T23:43:04.128Z,1.55
2019-05-12T23:45:33.896Z,0.90
2019-05-12T23:48:03.798Z,1.00
2019-05-12T23:50:32.727Z,1.10
2019-05-12T23:53:03.509Z,1.15
2019-05-12T23:55:34.720Z,1.17
2019-05-12T23:58:04.203Z,1.10
